WEATHER DATA

YESTERDAY
Time Temp. Dewp. Hum. Wind dir Wind speed Wind gust Bar.
00:08 13.2 10.6 84 225 3.1 6.1 1021.5
00:18 12.9 10.1 83 220 5 9.2 1021.5
00:29 12.7 10.1 84 219 5 7.5 1021.5
00:39 12.6 10.1 85 221 3.1 7.8 1021.7
00:48 12.6 10.3 86 41 3.1 3.9 1021.6
00:58 12.5 10.4 87 43 3.1 3.9 1021.6
01:09 12.4 10.3 87 49 2.8 3.6 1021.6
01:19 12.2 10.1 87 176 2.8 6.4 1021.6
01:29 12.1 10.2 88 63 2.8 4.7 1021.4
01:40 12 10.1 88 65 3.1 4.2 1021.4
01:49 12 10.2 89 71 2.8 4.2 1021.3
01:59 11.9 10.1 89 63 3.3 5 1021.3
02:09 11.8 10.2 90 69 3.3 4.4 1021.3
02:20 11.8 10.2 90 76 3.1 4.2 1021.3
02:30 11.7 10.1 90 90 3.1 3.6 1021.3
02:40 11.7 10.3 91 90 3.3 5 1021.3
02:50 11.7 10.3 91 93 3.3 4.4 1021.3
03:00 11.6 10.2 91 90 3.6 4.7 1021.3
03:10 11.6 10.2 91 93 3.6 5 1021.3
03:20 11.6 10.2 91 104 3.3 4.2 1021.3
03:31 11.5 10.1 91 134 3.1 4.7 1021.3
03:40 11.4 10 91 98 3.3 4.4 1021.3
03:50 11.4 10 91 97 3.6 4.2 1021.2
04:00 11.4 10 91 90 4.2 5 1021.2
04:11 11.3 10 92 92 4.2 5.6 1021.1
04:21 11.3 10 92 95 3.9 4.7 1021.2
04:31 11.3 10 92 92 4.2 5.3 1021.2
04:41 11.3 10 92 102 3.3 3.9 1021.3
04:51 11.3 10 92 93 3.3 4.2 1021.2
05:01 11.3 10 92 121 3.1 4.4 1021.3
05:11 11.2 9.9 92 133 2.8 5 1021.2
05:22 11.2 9.9 92 153 2.8 4.4 1021.2
05:32 11.2 9.9 92 177 3.1 5.6 1021.2
05:41 11.2 9.9 92 188 3.3 5.6 1021.2
05:52 11.2 9.9 92 200 3.9 6.9 1021.3
06:02 11.3 9.9 91 194 3.6 6.9 1021.3
06:12 11.3 9.7 90 193 3.9 6.7 1021.3
06:22 11.4 9.7 89 194 3.9 7.5 1021.3
06:32 11.4 9.7 89 192 3.6 6.4 1021.3
06:42 11.4 9.7 89 186 3.1 6.1 1021.3
06:52 11.4 9.7 89 176 2.8 6.4 1021.2
07:03 11.5 9.8 89 195 3.3 6.1 1021.3
07:13 11.5 9.8 89 181 2.8 6.1 1021.3
07:23 11.6 9.9 89 145 2.5 4.4 1021.4
07:32 11.7 9.9 89 160 2.2 6.1 1021.4
07:43 12.1 10.3 89 90 2.2 5 1021.4
07:53 12.4 10.5 88 74 2.8 3.6 1021.5
08:03 12.5 10.4 87 78 2.8 4.2 1021.4
08:13 12.6 10.3 86 76 3.3 4.4 1021.4
08:24 12.7 10.2 85 73 3.3 4.4 1021.4
08:33 12.8 10.3 85 80 3.3 4.2 1021.4
08:43 12.8 10.2 84 73 3.6 4.7 1021.4
08:54 12.8 10.2 84 69 3.3 4.7 1021.5
09:04 12.9 10.3 84 70 3.6 4.4 1021.5
09:14 13 10.4 84 71 3.3 4.7 1021.6
09:23 13.1 10.5 84 70 3.6 4.7 1021.7
09:34 13.2 10.6 84 66 3.3 4.7 1021.7
09:44 13.3 10.5 83 66 3.3 4.4 1021.8
09:54 13.5 10.7 83 65 3.1 4.2 1021.8
10:04 13.6 10.8 83 64 3.1 4.4 1021.8
10:14 13.8 11 83 64 3.1 4.2 1021.7
10:24 13.9 10.9 82 63 3.3 4.4 1021.7
10:45 14.2 11 81 57 3.3 4.4 1021.6
10:54 14.4 11 80 54 3.1 4.2 1021.6
11:04 14.4 10.8 79 51 3.3 4.4 1021.5
11:15 14.5 10.9 79 50 3.3 4.7 1021.4
11:25 14.7 11.1 79 54 3.1 4.4 1021.4
11:35 14.7 10.9 78 51 3.6 5 1021.3
11:44 14.7 11.1 79 53 3.6 4.4 1021.3
11:55 15 11.2 78 49 3.3 4.7 1021.2
12:08 15.3 11.1 76 47 3.9 4.4 1021.2
12:18 15.3 10.9 75 52 4.4 5.3 1021
12:27 15.2 10.6 74 51 3.9 5.3 1020.9
12:37 15.2 10.8 75 46 3.9 4.7 1020.7
12:48 15.1 10.7 75 55 4.2 5.6 1020.6
12:58 15 10.4 74 50 3.9 5 1020.7
13:08 15 10.6 75 50 3.6 4.7 1020.7
13:18 14.9 10.5 75 51 3.3 4.4 1020.6
13:28 14.9 10.5 75 48 3.6 4.7 1020.5
13:38 14.7 10.3 75 47 3.9 5 1020.5
13:48 14.4 10.2 76 45 3.9 5 1020.3
13:59 14.3 10.3 77 51 4.4 5.6 1020.2
14:08 14.1 10.1 77 44 4.4 6.4 1020
14:18 14 10 77 46 3.6 5.3 1020
14:29 14 10 77 46 3.9 5.6 1019.9
14:39 13.9 10.1 78 41 3.6 5.3 1019.9
14:48 13.8 9.8 77 45 4.2 5.6 1019.7
14:58 13.7 9.9 78 46 4.2 5.6 1019.6
15:09 13.7 9.9 78 40 4.2 5.6 1019.4
15:19 13.6 9.6 77 48 4.4 6.7 1019.2
15:28 13.7 9.9 78 41 4.2 5.6 1019.2
15:39 13.6 9.8 78 45 4.4 6.4 1019
15:49 13.5 9.7 78 43 4.4 6.4 1018.9
15:59 13.4 9.6 78 43 4.7 6.1 1018.6
16:09 13.2 9.6 79 45 4.4 5.6 1018.5
16:20 13.1 9.5 79 45 4.7 6.1 1018.4
16:29 13 9.4 79 45 4.7 5.8 1018.3
16:39 12.9 9.4 79 45 4.2 5.8 1018.2
16:50 12.9 9.5 80 44 4.2 5.6 1018
17:00 12.8 9.4 80 44 4.2 5.6 1017.9
17:10 12.8 9.4 80 46 4.2 5.8 1017.8
17:19 12.8 9.6 81 43 4.2 5 1017.7
17:30 12.9 9.7 81 42 3.3 4.7 1017.6
17:40 13 9.8 81 41 3.6 5.3 1017.6
17:50 13.1 10.1 82 39 3.9 5.3 1017.5
18:00 13.1 10.1 82 41 3.6 4.7 1017.5
18:10 13.4 10.4 82 36 3.9 5.3 1017.5
18:20 13.5 10.5 82 37 3.3 4.4 1017.7
18:30 13.6 10.4 81 36 3.3 4.7 1017.8
18:41 13.6 10.4 81 36 2.5 5 1017.8
18:51 13.9 10.5 80 31 2.5 3.6 1017.7
19:03 14.2 10.6 79 357 2.5 3.3 1017.5
19:13 14.7 10.7 77 225 3.1 7.5 1017.5
19:23 14.9 10.9 77 225 3.1 6.4 1017.3
19:33 15.1 10.9 76 223 2.8 6.4 1017.2
19:43 15.3 10.9 75 225 2.8 6.7 1017.2
19:53 15.5 10.9 74 235 3.1 6.1 1017.1
20:03 15.8 11 73 228 3.1 6.7 1017.2
20:13 15.9 10.9 72 232 3.1 7.2 1017
20:23 15.3 10.3 72 244 3.3 6.4 1016.8
20:34 14.7 10.1 74 246 3.9 7.2 1016.6
20:44 14.3 10.1 76 251 3.3 6.7 1016.6
20:53 13.9 9.9 77 251 3.6 6.7 1016.6
21:03 13.5 9.7 78 250 3.9 5.8 1016.4
21:14 13.1 9.5 79 247 4.4 7.8 1016.2
21:24 12.8 9.4 80 251 4.2 6.7 1016.1
21:34 12.4 9.2 81 273 4.2 7.5 1016.1
21:44 12.1 9.1 82 255 5 7.5 1015.8
21:54 11.8 9 83 263 4.7 6.9 1015.7
22:04 11.6 8.8 83 254 4.4 9.4 1015.7
22:14 11.5 8.9 84 251 4.2 6.7 1015.6
22:25 11.4 9 85 260 3.6 6.1 1015.7
22:35 11.3 9 86 352 3.6 5.3 1015.7
22:44 11.3 9 86 12 4.2 5.3 1015.5
22:55 11.1 8.8 86 15 3.9 5.3 1015.3
23:05 11 8.6 85 28 4.2 5.3 1015.3
23:15 10.9 8.7 86 26 4.4 5.6 1015.3
23:25 10.8 8.6 86 31 4.7 5.8 1015.3
23:36 10.8 8.6 86 29 4.2 5.3 1015.3
23:45 10.7 8.5 86 33 5 6.7 1015.2
23:55 10.7 8.5 86 28 3.6 5.8 1015.4

DAY STATISTIC

2020-06-02
TEMPERATURE
AVERAGE
12.9
HIGH
15.9
20:13
LOW
10.7
23:45
PRESSURE
AVERAGE
1019.6
HIGH
1021.8
09:44
LOW
1015.2
23:45
DEWPOINT
AVERAGE
10.1
HIGH
11.2
11:55
LOW
8.5
23:45
HUMIDITY
AVERAGE
83
HIGH
92
04:11
LOW
72
20:13
WIND SPEED
AVERAGE
3.6
HIGH
5.0
00:18
WIND GUST
AVERAGE
5.4
HIGH
9.4
22:04
WIND DIRECTION
PREVAILING
NE
47.5%
N
2.8
NE
47.5
E
19.9
SE
3.5
S
9.2
SW
9.9
W
7.1
NW
0.0
TEMPERATURE (°C)
LOW
10.7
HIGH
15.9
AVERAGE
12.9
PRESSURE (hpa)
LOW
1015.2
HIGH
1021.8
AVERAGE
1019.6
DEVICE